Latest Weather Observations for Port Lincoln Airport

IDS60801

Issued at 2:05 pm CST Thursday 24 April 2014 (issued every 30 minutes, with the page automatically refreshed every 10 minutes)

About weather observations | Map of weather stations | Latest weather observations for SA | Other Formats
Station Details ID: 018192 Name: PORT LINCOLN AWS Lat: -34.60 Lon: 135.88 Height: 8.5 m
Data from the previous 72 hours. | See also: Recent months at Port Lincoln Airport
Date/Time
CST
Temp
°C
App
Temp
°C
Dew
Point
Rel
Hum
%
Delta-T
°C
Wind Press
QNH
hPa
Press
MSL
hPa
Rain
since 9 am
mm
Dir
 
Spd
km/h
Gust
km/h
Spd
kts
Gust
kts
24/02:00pm 18.2 15.2 10.8 62 4.0 ESE 17 20 9 11 1018.4 - 0.8
24/01:30pm 18.3 14.8 10.2 59 4.3 SSE 19 28 10 15 1018.6 - 0.8
24/01:00pm 19.1 15.6 10.1 56 4.8 SE 19 26 10 14 1018.9 - 0.8
24/12:30pm 18.7 15.1 10.5 59 4.4 SE 20 28 11 15 1019.2 - 0.8
24/12:00pm 17.9 14.1 11.0 64 3.7 SSE 22 28 12 15 1019.6 1019.6 0.8
24/11:30am 17.9 14.1 12.4 70 3.1 SE 24 30 13 16 1019.8 - 0.8
24/11:00am 16.9 13.2 12.8 77 2.3 SSE 24 28 13 15 1019.9 - 0.8
24/10:30am 16.1 12.7 13.6 85 1.4 SSE 24 32 13 17 1019.8 - 0.8
24/10:20am 16.4 13.7 13.5 83 1.6 SE 20 24 11 13 1019.7 - 0.8
24/10:06am 16.5 13.9 13.8 84 1.5 SE 20 30 11 16 1019.7 - 0.8
24/10:00am 16.9 14.0 14.0 83 1.6 SE 22 30 12 16 1019.6 - 0.6
24/09:31am 16.8 13.7 14.6 87 1.3 SSE 24 30 13 16 1019.5 - 0.6
24/09:30am 17.0 14.1 15.0 88 1.2 SSE 24 30 13 16 1019.5 - 0.6
24/09:27am 16.8 14.1 14.6 87 1.3 SSE 22 28 12 15 1019.4 - 0.6
24/09:13am 16.7 13.8 14.0 84 1.5 SSE 22 30 12 16 1019.5 - 0.6
24/09:10am 18.1 15.8 14.6 80 2.0 SSE 20 30 11 16 1019.4 - 0.2
24/09:00am 17.8 15.1 13.5 76 2.4 SSE 20 26 11 14 1019.3 1019.3 0.0
24/08:30am 15.9 14.2 13.7 87 1.2 SSE 15 19 8 10 1019.0 - 0.0
24/08:00am 15.5 14.7 13.9 90 0.9 SSW 11 13 6 7 1018.4 - 0.0
24/07:30am 14.8 13.8 13.3 91 0.8 SW 11 13 6 7 1018.1 - 0.0
24/07:00am 14.7 13.1 12.9 89 1.0 SSW 13 17 7 9 1017.7 - 0.0
24/06:30am 15.1 13.6 13.1 88 1.1 WSW 13 15 7 8 1017.4 - 0.0
24/06:00am 15.6 13.9 13.6 88 1.1 WSW 15 19 8 10 1017.1 1017.1 0.0
24/05:30am 15.6 13.9 13.6 88 1.1 WSW 15 17 8 9 1016.8 - 0.0
24/05:00am 15.5 13.9 13.9 90 0.9 WSW 15 19 8 10 1016.5 - 0.0
24/04:30am 14.5 13.1 13.4 93 0.6 W 13 15 7 8 1016.3 - 0.0
24/04:00am 14.4 13.3 13.1 92 0.7 W 11 15 6 8 1016.1 - 0.0
24/03:30am 14.4 12.6 13.3 93 0.6 WNW 15 19 8 10 1016.0 - 0.0
24/03:00am 14.2 12.3 13.1 93 0.6 WNW 15 19 8 10 1016.1 1016.1 0.0
24/02:30am 14.2 12.3 12.9 92 0.7 WNW 15 17 8 9 1016.1 - 0.0
24/02:00am 15.3 13.3 13.8 91 0.8 WNW 17 22 9 12 1016.2 - 0.0
24/01:30am 14.9 14.0 13.6 92 0.7 WNW 11 15 6 8 1016.1 - 0.0
24/01:00am 14.9 13.3 13.8 93 0.6 WNW 15 19 8 10 1016.1 - 0.0
24/12:30am 14.6 13.3 13.8 95 0.4 WNW 13 20 7 11 1016.0 - 0.0
24/12:00am 14.0 12.4 12.9 93 0.6 WNW 13 15 7 8 1016.3 1016.3 0.0
 
Date/Time
CST
Temp
°C
App
Temp
°C
Dew
Point
Rel
Hum
%
Delta-T
°C
Wind Press
QNH
hPa
Press
MSL
hPa
Rain
since 9 am
mm
Dir
 
Spd
km/h
Gust
km/h
Spd
kts
Gust
kts
23/11:30pm 14.2 12.3 13.1 93 0.6 WNW 15 19 8 10 1016.4 - 0.0
23/11:00pm 14.3 12.8 13.2 93 0.6 WNW 13 17 7 9 1016.5 - 0.0
23/10:30pm 14.2 12.2 12.8 91 0.8 NW 15 19 8 10 1016.5 - 0.0
23/10:00pm 14.6 13.0 12.8 89 1.0 NW 13 17 7 9 1016.5 - 0.0
23/09:30pm 15.2 13.8 13.4 89 1.0 WNW 13 15 7 8 1016.4 - 0.0
23/09:00pm 15.6 13.2 13.8 89 1.0 WNW 19 26 10 14 1016.3 1016.3 0.0
23/08:33pm 15.6 14.0 14.0 90 0.9 WNW 15 20 8 11 1016.1 - 0.0
23/08:30pm 15.6 13.6 14.0 90 0.9 WNW 17 24 9 13 1016.1 - 0.0
23/08:07pm 16.1 14.0 13.6 85 1.4 WNW 17 24 9 13 1016.1 - 0.0
23/08:00pm 16.4 14.5 12.9 80 1.9 WNW 15 20 8 11 1016.0 - 0.0
23/07:30pm 15.9 14.2 12.3 79 2.0 NW 13 17 7 9 1015.7 - 0.0
23/07:00pm 16.2 14.4 12.2 77 2.2 WNW 13 20 7 11 1015.6 - 0.0
23/06:30pm 16.4 13.8 12.0 75 2.4 W 17 22 9 12 1015.2 - 0.0
23/06:00pm 17.4 13.8 11.7 69 3.1 WNW 22 32 12 17 1014.9 1014.9 0.0
23/05:30pm 18.1 13.5 11.2 64 3.7 W 26 33 14 18 1014.7 - 0.0
23/05:00pm 18.6 14.5 10.2 58 4.5 WNW 22 32 12 17 1014.6 - 0.0
23/04:30pm 19.9 14.6 9.8 52 5.4 W 28 35 15 19 1014.8 - 0.0
23/04:00pm 21.9 16.9 9.4 45 6.7 W 26 32 14 17 1014.4 - 0.0
23/03:30pm 22.3 17.2 9.1 43 7.1 NW 26 33 14 18 1014.2 - 0.0
23/03:00pm 22.3 18.4 9.5 44 6.9 NNW 20 33 11 18 1014.2 1014.2 0.0
23/02:30pm 22.3 17.8 8.4 41 7.3 WNW 22 32 12 17 1014.3 - 0.0
23/02:00pm 22.4 18.1 7.8 39 7.6 WNW 20 32 11 17 1014.3 - 0.0
23/01:30pm 23.1 19.2 8.8 40 7.6 WNW 19 26 10 14 1014.7 - 0.0
23/01:00pm 21.8 18.7 9.0 44 6.8 NNW 15 26 8 14 1015.2 - 0.0
23/12:30pm 21.0 17.6 9.3 47 6.2 NW 17 24 9 13 1016.0 - 0.0
23/12:00pm 20.4 17.3 9.0 48 6.0 NW 15 20 8 11 1016.6 1016.6 0.0
23/11:30am 19.9 16.9 9.2 50 5.7 W 15 20 8 11 1017.2 - 0.0
23/11:00am 19.8 16.5 9.7 52 5.4 W 17 26 9 14 1017.6 - 0.0
23/10:30am 18.6 14.7 8.8 53 5.1 WNW 19 26 10 14 1018.1 - 0.0
23/10:00am 17.4 13.8 8.5 56 4.6 WNW 17 20 9 11 1018.4 - 0.0
23/09:30am 16.7 14.2 9.6 63 3.7 NW 13 20 7 11 1018.7 - 0.0
23/09:00am 14.2 12.6 10.2 77 2.1 NNW 9 11 5 6 1018.8 1018.8 0.0
23/08:30am 13.1 10.8 10.5 84 1.4 NNW 13 15 7 8 1018.7 - 0.0
23/08:00am 10.7 8.4 9.1 90 0.8 NW 11 17 6 9 1018.5 - 0.0
23/07:30am 9.7 7.0 9.1 96 0.3 NW 13 15 7 8 1018.3 - 0.0
23/07:00am 7.6 4.4 6.7 94 0.4 NNW 13 15 7 8 1018.0 - 0.0
23/06:30am 8.1 5.4 7.2 94 0.4 NW 11 13 6 7 1017.7 - 0.0
23/06:00am 8.9 6.0 8.0 94 0.4 NNW 13 15 7 8 1017.4 1017.4 0.0
23/05:30am 9.0 6.5 8.1 94 0.4 NW 11 13 6 7 1017.5 - 0.0
23/05:00am 9.5 5.6 8.6 94 0.4 NW 19 20 10 11 1017.6 - 0.0
23/04:30am 9.0 6.0 7.9 93 0.5 NW 13 17 7 9 1017.4 - 0.0
23/04:00am 9.2 5.6 8.3 94 0.4 NW 17 19 9 10 1017.5 - 0.0
23/03:30am 9.1 5.0 8.0 93 0.5 NW 19 20 10 11 1017.7 - 0.0
23/03:00am 8.9 5.9 7.8 93 0.5 NW 13 17 7 9 1017.9 1017.9 0.0
23/02:30am 9.0 5.7 7.9 93 0.5 NW 15 19 8 10 1018.3 - 0.0
23/02:00am 8.8 5.8 7.6 92 0.6 NW 13 13 7 7 1018.5 - 0.0
23/01:30am 8.8 5.8 7.6 92 0.6 NNW 13 15 7 8 1018.8 - 0.0
23/01:00am 9.1 6.5 7.7 91 0.7 NW 11 15 6 8 1019.0 - 0.0
23/12:30am 9.5 6.2 8.1 91 0.7 WNW 15 19 8 10 1019.2 - 0.0
23/12:00am 9.3 6.7 7.6 89 0.8 NNW 11 11 6 6 1019.2 1019.2 0.0
 
Date/Time
CST
Temp
°C
App
Temp
°C
Dew
Point
Rel
Hum
%
Delta-T
°C
Wind Press
QNH
hPa
Press
MSL
hPa
Rain
since 9 am
mm
Dir
 
Spd
km/h
Gust
km/h
Spd
kts
Gust
kts
22/11:30pm 9.9 7.0 8.3 90 0.8 WNW 13 15 7 8 1019.5 - 0.0
22/11:00pm 9.8 7.7 8.1 89 0.8 NW 9 11 5 6 1019.7 - 0.0
22/10:30pm 10.1 7.2 8.2 88 0.9 NW 13 13 7 7 1019.9 - 0.0
22/10:00pm 10.2 7.3 8.1 87 1.0 WNW 13 15 7 8 1019.9 - 0.0
22/09:30pm 10.5 8.0 8.4 87 1.0 NW 11 13 6 7 1020.0 - 0.0
22/09:00pm 10.5 8.0 8.1 85 1.2 NW 11 13 6 7 1019.9 1019.9 0.0
22/08:30pm 10.7 9.1 8.1 84 1.3 WNW 6 11 3 6 1019.8 - 0.0
22/08:00pm 11.3 9.2 8.3 82 1.5 SW 9 9 5 5 1019.6 - 0.0
22/07:30pm 12.9 11.5 9.4 79 1.8 SW 7 9 4 5 1019.4 - 0.0
22/07:00pm 13.5 11.6 9.2 75 2.2 SW 9 13 5 7 1019.4 - 0.0
22/06:30pm 15.0 13.0 10.0 72 2.6 SSW 11 13 6 7 1019.1 - 0.0
22/06:00pm 16.3 13.2 10.4 68 3.1 SSW 17 20 9 11 1018.9 1018.9 0.0
22/05:30pm 16.9 13.6 11.0 68 3.2 S 19 24 10 13 1018.6 - 0.0
22/05:00pm 17.6 13.8 11.2 66 3.5 S 22 28 12 15 1018.6 - 0.0
22/04:30pm 17.9 14.0 10.8 63 3.8 S 22 26 12 14 1018.4 - 0.0
22/04:00pm 18.5 14.5 10.3 59 4.4 S 22 28 12 15 1018.3 - 0.0
22/03:30pm 19.1 14.9 9.6 54 5.0 SSE 22 28 12 15 1018.3 - 0.0
22/03:00pm 19.7 15.0 9.3 51 5.5 SSE 24 30 13 16 1018.2 1018.2 0.0
22/02:30pm 19.2 14.7 9.9 55 5.0 SSE 24 30 13 16 1018.1 - 0.0
22/02:00pm 19.5 14.6 10.0 54 5.1 SSE 26 32 14 17 1017.9 - 0.0
22/01:30pm 18.9 13.5 9.4 54 5.0 S 28 33 15 18 1018.0 - 0.0
22/01:00pm 20.3 14.7 8.9 48 6.0 S 28 33 15 18 1018.3 - 0.0
22/12:30pm 20.6 15.5 9.2 48 6.0 SSE 26 30 14 16 1018.5 - 0.0
22/12:00pm 19.6 14.8 8.9 50 5.6 SSE 24 32 13 17 1018.7 1018.7 0.0
22/11:30am 20.2 15.3 8.5 47 6.1 S 24 30 13 16 1018.9 - 0.0
22/11:00am 19.5 15.1 9.1 51 5.5 SSE 22 32 12 17 1019.1 - 0.0
22/10:30am 19.4 14.8 9.6 53 5.2 S 24 32 13 17 1019.1 - 0.0
22/10:00am 19.0 14.1 9.8 55 4.9 S 26 32 14 17 1019.1 - 0.0
22/09:30am 18.7 14.1 9.5 55 4.9 S 24 32 13 17 1019.0 - 0.0
22/09:00am 17.1 12.8 9.5 61 4.0 SSW 22 30 12 16 1019.0 1019.0 0.0
22/08:30am 17.0 14.4 10.8 67 3.3 SSW 15 19 8 10 1018.9 - 0.0
22/08:00am 15.4 12.4 10.6 73 2.5 SSW 17 20 9 11 1018.4 - 0.0
22/07:30am 13.6 11.2 10.0 79 1.9 SW 13 17 7 9 1017.9 - 0.0
22/07:00am 12.5 10.7 9.5 82 1.5 SW 9 15 5 8 1017.5 - 0.0
22/06:30am 13.4 10.2 10.0 80 1.8 SW 17 20 9 11 1017.0 - 0.0
22/06:00am 13.3 11.3 10.3 82 1.6 SW 11 19 6 10 1016.7 1016.7 0.0
22/05:30am 13.3 11.0 10.5 83 1.5 SW 13 17 7 9 1016.5 - 0.0
22/05:00am 13.7 10.8 10.9 83 1.5 SW 17 20 9 11 1016.0 - 0.0
22/04:30am 13.8 11.7 11.1 84 1.4 SW 13 19 7 10 1015.8 - 0.0
22/04:00am 13.9 12.2 11.2 84 1.4 SW 11 15 6 8 1015.4 - 0.0
22/03:30am 14.0 12.1 11.7 86 1.2 SW 13 19 7 10 1015.3 - 0.0
22/03:00am 14.2 12.4 12.1 87 1.1 WSW 13 17 7 9 1015.1 1015.1 0.0
22/02:30am 13.6 11.8 12.0 90 0.9 SW 13 15 7 8 1015.0 - 0.0
22/02:00am 13.5 12.2 11.4 87 1.1 WSW 9 9 5 5 1014.8 - 0.0
22/01:30am 15.2 13.4 12.1 82 1.7 SSW 13 15 7 8 1014.6 - 0.0
22/01:00am 15.8 14.1 12.4 80 1.9 SSW 13 19 7 10 1014.4 - 0.0
22/12:30am 16.4 14.1 12.9 80 1.9 SSW 17 26 9 14 1014.5 - 0.0
22/12:00am 16.9 13.7 13.2 79 2.1 SSW 22 28 12 15 1013.9 1013.9 0.0
 
Date/Time
CST
Temp
°C
App
Temp
°C
Dew
Point
Rel
Hum
%
Delta-T
°C
Wind Press
QNH
hPa
Press
MSL
hPa
Rain
since 9 am
mm
Dir
 
Spd
km/h
Gust
km/h
Spd
kts
Gust
kts
21/11:30pm 17.2 13.4 13.5 79 2.1 SSW 26 35 14 19 1013.4 - 0.0
21/11:00pm 17.5 15.1 13.8 79 2.1 SSW 19 22 10 12 1013.6 - 0.0
21/10:30pm 17.5 15.2 14.0 80 2.0 S 19 26 10 14 1013.5 - 0.0
21/10:00pm 17.7 14.5 14.2 80 2.0 S 24 33 13 18 1013.4 - 0.0
21/09:30pm 18.2 16.8 15.6 85 1.5 S 17 24 9 13 1013.2 - 0.0
21/09:23pm 18.1 16.7 15.5 85 1.5 S 17 24 9 13 1012.4 - 0.0
21/09:06pm 18.1 16.1 15.4 84 1.6 SSW 20 28 11 15 1012.2 - 0.0
21/09:00pm 18.0 17.3 15.3 84 1.6 S 13 22 7 12 1012.3 1012.3 0.0
21/08:30pm 18.2 18.0 15.6 85 1.5 S 11 17 6 9 1011.7 - 0.0
21/08:00pm 18.4 16.6 15.6 84 1.6 S 19 26 10 14 1011.3 - 0.0
21/07:39pm 19.0 17.2 15.9 82 1.8 SSW 20 28 11 15 1012.2 - 0.0
21/07:30pm 19.2 17.1 16.1 82 1.8 SSW 22 30 12 16 1011.9 - 0.0
21/07:21pm 19.4 17.6 15.9 80 2.1 S 20 28 11 15 1011.3 - 0.0
21/07:00pm 19.5 17.3 13.4 68 3.5 WSW 17 20 9 11 1011.0 - 0.0
21/06:30pm 19.6 18.6 11.1 58 4.6 SW 7 13 4 7 1010.3 - 0.0
21/06:00pm 20.4 20.7 10.8 54 5.2 CALM 0 11 0 6 1009.9 1009.9 0.0
21/05:30pm 22.0 17.5 10.2 47 6.4 W 24 35 13 19 1009.5 - 0.0
21/05:00pm 23.5 17.4 6.7 34 8.7 W 28 37 15 20 1009.2 - 0.0
21/04:30pm 24.7 17.7 6.9 32 9.3 NW 33 41 18 22 1009.2 - 0.0
21/04:00pm 25.5 16.4 5.7 28 10.1 NW 43 56 23 30 1008.9 - 0.0
21/03:30pm 26.1 18.1 5.7 27 10.5 NW 37 48 20 26 1008.8 - 0.0
21/03:00pm 27.3 18.1 5.6 25 11.2 WNW 43 56 23 30 1008.8 1008.8 0.0
21/02:47pm 26.7 17.9 5.6 26 10.9 WNW 41 59 22 32 1008.8 - 0.0
21/02:30pm 27.3 18.1 5.6 25 11.2 WNW 43 54 23 29 1009.0 - 0.0

Other Formats:

Comma delimited format used in spreadsheet applications
http://www.bom.gov.au/fwo/IDS60801/IDS60801.95661.axf

JavaScript Object Notation format (JSON) in row-major order
http://www.bom.gov.au/fwo/IDS60801/IDS60801.95661.json